sensor_id;sensor_type;location;lat;lon;timestamp;temperature;humidity
41437;DHT22;27178;49.460;10.850;2022-10-16T00:01:08;19.00;84.30
41437;DHT22;27178;49.460;10.850;2022-10-16T00:03:38;19.10;84.30
41437;DHT22;27178;49.460;10.850;2022-10-16T00:06:09;19.10;84.30
41437;DHT22;27178;49.460;10.850;2022-10-16T00:08:40;19.00;84.30
41437;DHT22;27178;49.460;10.850;2022-10-16T00:11:10;19.10;84.40
41437;DHT22;27178;49.460;10.850;2022-10-16T00:13:41;19.00;84.30
41437;DHT22;27178;49.460;10.850;2022-10-16T00:16:11;19.00;84.30
41437;DHT22;27178;49.460;10.850;2022-10-16T00:18:39;19.00;84.30
41437;DHT22;27178;49.460;10.850;2022-10-16T00:21:10;19.10;84.40
41437;DHT22;27178;49.460;10.850;2022-10-16T00:23:40;19.00;84.20
41437;DHT22;27178;49.460;10.850;2022-10-16T00:26:10;19.00;84.20
41437;DHT22;27178;49.460;10.850;2022-10-16T00:28:39;19.00;84.30
41437;DHT22;27178;49.460;10.850;2022-10-16T00:31:10;19.10;84.30
41437;DHT22;27178;49.460;10.850;2022-10-16T00:33:39;19.00;84.30
41437;DHT22;27178;49.460;10.850;2022-10-16T00:36:11;19.10;84.40
41437;DHT22;27178;49.460;10.850;2022-10-16T00:38:41;19.00;84.40
41437;DHT22;27178;49.460;10.850;2022-10-16T00:41:12;19.10;84.40
41437;DHT22;27178;49.460;10.850;2022-10-16T00:43:42;19.00;84.40
41437;DHT22;27178;49.460;10.850;2022-10-16T00:46:15;19.00;84.40
41437;DHT22;27178;49.460;10.850;2022-10-16T00:48:47;19.10;84.60
41437;DHT22;27178;49.460;10.850;2022-10-16T00:51:19;19.10;84.60
41437;DHT22;27178;49.460;10.850;2022-10-16T00:53:51;19.10;84.50
41437;DHT22;27178;49.460;10.850;2022-10-16T00:56:20;19.00;84.50
41437;DHT22;27178;49.460;10.850;2022-10-16T00:58:48;19.00;84.60
41437;DHT22;27178;49.460;10.850;2022-10-16T01:01:16;19.00;84.60
41437;DHT22;27178;49.460;10.850;2022-10-16T01:03:45;19.00;84.60
41437;DHT22;27178;49.460;10.850;2022-10-16T01:06:24;19.00;84.60
41437;DHT22;27178;49.460;10.850;2022-10-16T01:09:11;19.00;84.80
41437;DHT22;27178;49.460;10.850;2022-10-16T01:11:47;19.00;84.60
41437;DHT22;27178;49.460;10.850;2022-10-16T01:14:22;19.00;84.70
41437;DHT22;27178;49.460;10.850;2022-10-16T01:17:00;19.00;84.70
41437;DHT22;27178;49.460;10.850;2022-10-16T01:19:41;19.00;84.70
41437;DHT22;27178;49.460;10.850;2022-10-16T01:22:13;19.00;84.90
41437;DHT22;27178;49.460;10.850;2022-10-16T01:24:45;19.00;84.80
41437;DHT22;27178;49.460;10.850;2022-10-16T01:27:17;19.00;84.80
41437;DHT22;27178;49.460;10.850;2022-10-16T01:29:52;19.00;84.80
41437;DHT22;27178;49.460;10.850;2022-10-16T01:32:28;19.00;84.90
41437;DHT22;27178;49.460;10.850;2022-10-16T01:35:02;19.00;84.90
41437;DHT22;27178;49.460;10.850;2022-10-16T01:37:36;19.00;84.90
41437;DHT22;27178;49.460;10.850;2022-10-16T01:40:10;19.00;85.10
41437;DHT22;27178;49.460;10.850;2022-10-16T01:42:44;19.00;85.10
41437;DHT22;27178;49.460;10.850;2022-10-16T01:45:18;19.00;85.10
41437;DHT22;27178;49.460;10.850;2022-10-16T01:47:48;18.90;85.10
41437;DHT22;27178;49.460;10.850;2022-10-16T01:50:19;18.90;85.10
41437;DHT22;27178;49.460;10.850;2022-10-16T01:52:51;18.90;85.10
41437;DHT22;27178;49.460;10.850;2022-10-16T01:55:25;18.90;85.30
41437;DHT22;27178;49.460;10.850;2022-10-16T01:57:59;18.90;85.30
41437;DHT22;27178;49.460;10.850;2022-10-16T02:00:29;18.90;85.30
41437;DHT22;27178;49.460;10.850;2022-10-16T02:02:58;18.90;85.30
41437;DHT22;27178;49.460;10.850;2022-10-16T02:05:33;18.90;85.40
41437;DHT22;27178;49.460;10.850;2022-10-16T02:08:02;18.90;85.40
41437;DHT22;27178;49.460;10.850;2022-10-16T02:10:32;18.90;85.30
41437;DHT22;27178;49.460;10.850;2022-10-16T02:13:05;18.90;85.30
41437;DHT22;27178;49.460;10.850;2022-10-16T02:15:34;18.90;85.40
41437;DHT22;27178;49.460;10.850;2022-10-16T02:18:04;18.90;85.40
41437;DHT22;27178;49.460;10.850;2022-10-16T02:20:36;18.90;85.30
41437;DHT22;27178;49.460;10.850;2022-10-16T02:23:12;18.90;85.30
41437;DHT22;27178;49.460;10.850;2022-10-16T02:25:47;18.90;85.40
41437;DHT22;27178;49.460;10.850;2022-10-16T02:28:23;18.90;85.40
41437;DHT22;27178;49.460;10.850;2022-10-16T02:30:56;18.90;85.40
41437;DHT22;27178;49.460;10.850;2022-10-16T02:33:27;18.90;85.40
41437;DHT22;27178;49.460;10.850;2022-10-16T02:35:57;18.90;85.40
41437;DHT22;27178;49.460;10.850;2022-10-16T02:38:26;18.90;85.40
41437;DHT22;27178;49.460;10.850;2022-10-16T02:40:55;18.90;85.40
41437;DHT22;27178;49.460;10.850;2022-10-16T02:43:26;18.90;85.40
41437;DHT22;27178;49.460;10.850;2022-10-16T02:45:54;18.90;85.40
41437;DHT22;27178;49.460;10.850;2022-10-16T02:48:22;18.90;85.40
41437;DHT22;27178;49.460;10.850;2022-10-16T02:50:51;18.90;85.40
41437;DHT22;27178;49.460;10.850;2022-10-16T02:53:19;18.90;85.50
41437;DHT22;27178;49.460;10.850;2022-10-16T02:55:48;18.90;85.50
41437;DHT22;27178;49.460;10.850;2022-10-16T02:58:16;18.90;85.50
41437;DHT22;27178;49.460;10.850;2022-10-16T03:00:45;18.90;85.60
41437;DHT22;27178;49.460;10.850;2022-10-16T03:03:14;18.90;85.70
41437;DHT22;27178;49.460;10.850;2022-10-16T03:05:43;18.90;85.70
41437;DHT22;27178;49.460;10.850;2022-10-16T03:08:12;18.90;85.80
41437;DHT22;27178;49.460;10.850;2022-10-16T03:10:41;18.90;85.80
41437;DHT22;27178;49.460;10.850;2022-10-16T03:13:09;18.90;85.90
41437;DHT22;27178;49.460;10.850;2022-10-16T03:15:37;18.90;85.80
41437;DHT22;27178;49.460;10.850;2022-10-16T03:18:07;18.90;85.80
41437;DHT22;27178;49.460;10.850;2022-10-16T03:20:36;18.90;85.90
41437;DHT22;27178;49.460;10.850;2022-10-16T03:23:04;18.90;85.90
41437;DHT22;27178;49.460;10.850;2022-10-16T03:25:34;18.90;85.90
41437;DHT22;27178;49.460;10.850;2022-10-16T03:28:02;18.90;85.90
41437;DHT22;27178;49.460;10.850;2022-10-16T03:30:30;18.90;86.20
41437;DHT22;27178;49.460;10.850;2022-10-16T03:32:58;18.90;86.20
41437;DHT22;27178;49.460;10.850;2022-10-16T03:35:28;18.90;86.10
41437;DHT22;27178;49.460;10.850;2022-10-16T03:37:57;18.90;86.30
41437;DHT22;27178;49.460;10.850;2022-10-16T03:40:25;18.90;86.10
41437;DHT22;27178;49.460;10.850;2022-10-16T03:42:53;18.90;86.10
41437;DHT22;27178;49.460;10.850;2022-10-16T03:45:24;18.90;86.10
41437;DHT22;27178;49.460;10.850;2022-10-16T03:47:52;18.80;86.20
41437;DHT22;27178;49.460;10.850;2022-10-16T03:50:21;18.90;86.30
41437;DHT22;27178;49.460;10.850;2022-10-16T03:52:51;18.90;86.30
41437;DHT22;27178;49.460;10.850;2022-10-16T03:55:19;18.90;86.30
41437;DHT22;27178;49.460;10.850;2022-10-16T03:57:47;18.90;86.50
41437;DHT22;27178;49.460;10.850;2022-10-16T04:00:16;18.90;86.40
41437;DHT22;27178;49.460;10.850;2022-10-16T04:02:44;18.80;86.50
41437;DHT22;27178;49.460;10.850;2022-10-16T04:05:12;18.80;86.60
41437;DHT22;27178;49.460;10.850;2022-10-16T04:07:41;18.80;86.60
41437;DHT22;27178;49.460;10.850;2022-10-16T04:10:11;18.80;86.70
41437;DHT22;27178;49.460;10.850;2022-10-16T04:12:39;18.80;86.80
41437;DHT22;27178;49.460;10.850;2022-10-16T04:15:08;18.80;86.90
41437;DHT22;27178;49.460;10.850;2022-10-16T04:17:36;18.80;86.90
41437;DHT22;27178;49.460;10.850;2022-10-16T04:20:06;18.80;86.80
41437;DHT22;27178;49.460;10.850;2022-10-16T04:22:34;18.70;86.90
41437;DHT22;27178;49.460;10.850;2022-10-16T04:25:04;18.80;86.90
41437;DHT22;27178;49.460;10.850;2022-10-16T04:27:34;18.70;86.90
41437;DHT22;27178;49.460;10.850;2022-10-16T04:30:03;18.70;86.90
41437;DHT22;27178;49.460;10.850;2022-10-16T04:32:32;18.70;86.90
41437;DHT22;27178;49.460;10.850;2022-10-16T04:35:00;18.70;87.00
41437;DHT22;27178;49.460;10.850;2022-10-16T04:37:28;18.70;87.00
41437;DHT22;27178;49.460;10.850;2022-10-16T04:39:57;18.70;87.10
41437;DHT22;27178;49.460;10.850;2022-10-16T04:42:25;18.70;87.10
41437;DHT22;27178;49.460;10.850;2022-10-16T04:44:55;18.70;87.10
41437;DHT22;27178;49.460;10.850;2022-10-16T04:47:23;18.70;87.10
41437;DHT22;27178;49.460;10.850;2022-10-16T04:49:52;18.70;87.10
41437;DHT22;27178;49.460;10.850;2022-10-16T04:52:20;18.70;87.10
41437;DHT22;27178;49.460;10.850;2022-10-16T04:54:51;18.70;87.10
41437;DHT22;27178;49.460;10.850;2022-10-16T04:57:20;18.70;87.10
41437;DHT22;27178;49.460;10.850;2022-10-16T04:59:49;18.70;87.10
41437;DHT22;27178;49.460;10.850;2022-10-16T05:02:22;18.70;87.00
41437;DHT22;27178;49.460;10.850;2022-10-16T05:04:51;18.70;87.10
41437;DHT22;27178;49.460;10.850;2022-10-16T05:07:20;18.70;87.00
41437;DHT22;27178;49.460;10.850;2022-10-16T05:09:48;18.70;86.90
41437;DHT22;27178;49.460;10.850;2022-10-16T05:12:17;18.70;86.90
41437;DHT22;27178;49.460;10.850;2022-10-16T05:14:46;18.70;86.90
41437;DHT22;27178;49.460;10.850;2022-10-16T05:17:14;18.70;86.90
41437;DHT22;27178;49.460;10.850;2022-10-16T05:19:44;18.70;86.90
41437;DHT22;27178;49.460;10.850;2022-10-16T05:22:12;18.70;86.90
41437;DHT22;27178;49.460;10.850;2022-10-16T05:24:41;18.70;86.90
41437;DHT22;27178;49.460;10.850;2022-10-16T05:27:09;18.70;86.90
41437;DHT22;27178;49.460;10.850;2022-10-16T05:29:38;18.70;87.00
41437;DHT22;27178;49.460;10.850;2022-10-16T05:32:08;18.70;87.10
41437;DHT22;27178;49.460;10.850;2022-10-16T05:34:36;18.70;87.10
41437;DHT22;27178;49.460;10.850;2022-10-16T05:37:06;18.70;87.00
41437;DHT22;27178;49.460;10.850;2022-10-16T05:39:34;18.70;87.10
41437;DHT22;27178;49.460;10.850;2022-10-16T05:42:04;18.70;87.10
41437;DHT22;27178;49.460;10.850;2022-10-16T05:44:32;18.70;87.10
41437;DHT22;27178;49.460;10.850;2022-10-16T05:47:01;18.70;87.80
41437;DHT22;27178;49.460;10.850;2022-10-16T05:49:29;18.70;87.10
41437;DHT22;27178;49.460;10.850;2022-10-16T05:51:58;18.70;87.20
41437;DHT22;27178;49.460;10.850;2022-10-16T05:54:27;18.70;87.10
41437;DHT22;27178;49.460;10.850;2022-10-16T05:56:56;18.70;87.20
41437;DHT22;27178;49.460;10.850;2022-10-16T05:59:24;18.70;87.20
41437;DHT22;27178;49.460;10.850;2022-10-16T06:01:53;18.60;87.10
41437;DHT22;27178;49.460;10.850;2022-10-16T06:04:21;18.60;87.10
41437;DHT22;27178;49.460;10.850;2022-10-16T06:06:49;18.60;87.20
41437;DHT22;27178;49.460;10.850;2022-10-16T06:09:18;18.60;87.30
41437;DHT22;27178;49.460;10.850;2022-10-16T06:11:47;18.60;87.30
41437;DHT22;27178;49.460;10.850;2022-10-16T06:14:17;18.60;87.30
41437;DHT22;27178;49.460;10.850;2022-10-16T06:16:45;18.70;87.30
41437;DHT22;27178;49.460;10.850;2022-10-16T06:19:13;18.60;87.30
41437;DHT22;27178;49.460;10.850;2022-10-16T06:21:43;18.70;87.30
41437;DHT22;27178;49.460;10.850;2022-10-16T06:24:11;18.60;87.30
41437;DHT22;27178;49.460;10.850;2022-10-16T06:26:39;18.60;87.30
41437;DHT22;27178;49.460;10.850;2022-10-16T06:29:09;18.60;87.30
41437;DHT22;27178;49.460;10.850;2022-10-16T06:31:38;18.60;87.30
41437;DHT22;27178;49.460;10.850;2022-10-16T06:34:08;18.70;87.30
41437;DHT22;27178;49.460;10.850;2022-10-16T06:36:37;18.70;87.40
41437;DHT22;27178;49.460;10.850;2022-10-16T06:39:05;18.70;87.40
41437;DHT22;27178;49.460;10.850;2022-10-16T06:41:34;18.70;87.40
41437;DHT22;27178;49.460;10.850;2022-10-16T06:44:06;18.70;87.40
41437;DHT22;27178;49.460;10.850;2022-10-16T06:46:36;18.70;87.40
41437;DHT22;27178;49.460;10.850;2022-10-16T06:49:04;18.70;87.40
41437;DHT22;27178;49.460;10.850;2022-10-16T06:51:33;18.70;87.30
41437;DHT22;27178;49.460;10.850;2022-10-16T06:54:08;18.70;87.30
41437;DHT22;27178;49.460;10.850;2022-10-16T06:56:36;18.70;87.30
41437;DHT22;27178;49.460;10.850;2022-10-16T06:59:04;18.70;87.20
41437;DHT22;27178;49.460;10.850;2022-10-16T07:01:33;18.70;87.10
41437;DHT22;27178;49.460;10.850;2022-10-16T07:04:03;18.70;87.20
41437;DHT22;27178;49.460;10.850;2022-10-16T07:06:32;18.70;87.20
41437;DHT22;27178;49.460;10.850;2022-10-16T07:09:05;18.70;87.20
41437;DHT22;27178;49.460;10.850;2022-10-16T07:11:34;18.80;87.20
41437;DHT22;27178;49.460;10.850;2022-10-16T07:14:02;18.80;87.20
41437;DHT22;27178;49.460;10.850;2022-10-16T07:16:32;18.80;87.20
41437;DHT22;27178;49.460;10.850;2022-10-16T07:19:02;18.80;87.30
41437;DHT22;27178;49.460;10.850;2022-10-16T07:21:32;18.80;87.10
41437;DHT22;27178;49.460;10.850;2022-10-16T07:24:04;18.80;87.10
41437;DHT22;27178;49.460;10.850;2022-10-16T07:26:35;18.80;87.10
41437;DHT22;27178;49.460;10.850;2022-10-16T07:29:03;18.80;87.10
41437;DHT22;27178;49.460;10.850;2022-10-16T07:31:32;18.80;87.10
41437;DHT22;27178;49.460;10.850;2022-10-16T07:34:01;18.90;87.10
41437;DHT22;27178;49.460;10.850;2022-10-16T07:36:31;18.80;87.00
41437;DHT22;27178;49.460;10.850;2022-10-16T07:38:59;18.90;87.00
41437;DHT22;27178;49.460;10.850;2022-10-16T07:41:27;18.90;87.00
41437;DHT22;27178;49.460;10.850;2022-10-16T07:43:56;18.90;86.90
41437;DHT22;27178;49.460;10.850;2022-10-16T07:46:27;18.90;86.90
41437;DHT22;27178;49.460;10.850;2022-10-16T07:48:55;18.90;87.00
41437;DHT22;27178;49.460;10.850;2022-10-16T07:51:25;18.90;87.00
41437;DHT22;27178;49.460;10.850;2022-10-16T07:53:55;19.00;87.10
41437;DHT22;27178;49.460;10.850;2022-10-16T07:56:24;19.00;87.00
41437;DHT22;27178;49.460;10.850;2022-10-16T07:58:52;19.00;87.00
41437;DHT22;27178;49.460;10.850;2022-10-16T08:01:20;19.00;86.90
41437;DHT22;27178;49.460;10.850;2022-10-16T08:03:50;19.00;86.80
41437;DHT22;27178;49.460;10.850;2022-10-16T08:06:19;19.00;86.90
41437;DHT22;27178;49.460;10.850;2022-10-16T08:08:55;19.00;87.70
41437;DHT22;27178;49.460;10.850;2022-10-16T08:11:24;19.00;86.80
41437;DHT22;27178;49.460;10.850;2022-10-16T08:13:52;19.00;86.80
41437;DHT22;27178;49.460;10.850;2022-10-16T08:16:21;19.00;86.80
41437;DHT22;27178;49.460;10.850;2022-10-16T08:18:49;19.00;87.30
41437;DHT22;27178;49.460;10.850;2022-10-16T08:21:19;19.00;86.80
41437;DHT22;27178;49.460;10.850;2022-10-16T08:23:50;19.10;87.00
41437;DHT22;27178;49.460;10.850;2022-10-16T08:26:26;19.10;87.20
41437;DHT22;27178;49.460;10.850;2022-10-16T08:28:54;19.10;87.30
41437;DHT22;27178;49.460;10.850;2022-10-16T08:31:24;19.20;87.30
41437;DHT22;27178;49.460;10.850;2022-10-16T08:33:53;19.20;87.10
41437;DHT22;27178;49.460;10.850;2022-10-16T08:36:22;19.20;87.10
41437;DHT22;27178;49.460;10.850;2022-10-16T08:38:50;19.30;87.00
41437;DHT22;27178;49.460;10.850;2022-10-16T08:41:56;19.30;86.80
41437;DHT22;27178;49.460;10.850;2022-10-16T08:47:29;19.40;86.60
41437;DHT22;27178;49.460;10.850;2022-10-16T08:50:00;19.40;86.60
41437;DHT22;27178;49.460;10.850;2022-10-16T08:52:34;19.40;86.50
41437;DHT22;27178;49.460;10.850;2022-10-16T08:55:04;19.50;86.60
41437;DHT22;27178;49.460;10.850;2022-10-16T08:57:34;19.50;86.60
41437;DHT22;27178;49.460;10.850;2022-10-16T09:00:12;19.50;86.50
41437;DHT22;27178;49.460;10.850;2022-10-16T09:02:48;19.50;86.80
41437;DHT22;27178;49.460;10.850;2022-10-16T09:05:27;19.60;86.60
41437;DHT22;27178;49.460;10.850;2022-10-16T09:08:08;19.60;86.80
41437;DHT22;27178;49.460;10.850;2022-10-16T09:10:46;19.60;86.60
41437;DHT22;27178;49.460;10.850;2022-10-16T09:13:23;19.70;86.60
41437;DHT22;27178;49.460;10.850;2022-10-16T09:16:01;19.70;86.40
41437;DHT22;27178;49.460;10.850;2022-10-16T09:18:37;19.70;86.30
41437;DHT22;27178;49.460;10.850;2022-10-16T09:21:12;19.80;86.30
41437;DHT22;27178;49.460;10.850;2022-10-16T09:23:42;19.80;86.10
41437;DHT22;27178;49.460;10.850;2022-10-16T09:26:12;19.80;86.00
41437;DHT22;27178;49.460;10.850;2022-10-16T09:28:42;19.80;85.90
41437;DHT22;27178;49.460;10.850;2022-10-16T09:31:15;19.80;85.90
41437;DHT22;27178;49.460;10.850;2022-10-16T09:33:46;19.80;85.60
41437;DHT22;27178;49.460;10.850;2022-10-16T09:36:16;19.80;85.70
41437;DHT22;27178;49.460;10.850;2022-10-16T09:38:45;19.80;85.80
41437;DHT22;27178;49.460;10.850;2022-10-16T09:41:18;19.80;85.60
41437;DHT22;27178;49.460;10.850;2022-10-16T09:43:52;19.80;85.50
41437;DHT22;27178;49.460;10.850;2022-10-16T09:46:25;19.80;85.60
41437;DHT22;27178;49.460;10.850;2022-10-16T09:48:56;19.80;85.50
41437;DHT22;27178;49.460;10.850;2022-10-16T09:51:27;19.80;85.60
41437;DHT22;27178;49.460;10.850;2022-10-16T09:53:58;19.80;85.60
41437;DHT22;27178;49.460;10.850;2022-10-16T09:56:28;19.80;85.60
41437;DHT22;27178;49.460;10.850;2022-10-16T09:58:59;19.80;85.60
41437;DHT22;27178;49.460;10.850;2022-10-16T10:01:36;19.90;85.80
41437;DHT22;27178;49.460;10.850;2022-10-16T10:04:07;19.90;85.70
41437;DHT22;27178;49.460;10.850;2022-10-16T10:06:36;19.90;85.70
41437;DHT22;27178;49.460;10.850;2022-10-16T10:09:14;19.90;86.40
41437;DHT22;27178;49.460;10.850;2022-10-16T10:11:49;20.00;85.30
41437;DHT22;27178;49.460;10.850;2022-10-16T10:14:37;20.00;85.30
41437;DHT22;27178;49.460;10.850;2022-10-16T10:17:11;20.10;85.10
41437;DHT22;27178;49.460;10.850;2022-10-16T10:19:41;20.10;85.10
41437;DHT22;27178;49.460;10.850;2022-10-16T10:22:17;20.10;85.10
41437;DHT22;27178;49.460;10.850;2022-10-16T10:24:55;20.20;85.10
41437;DHT22;27178;49.460;10.850;2022-10-16T10:27:27;20.20;85.30
41437;DHT22;27178;49.460;10.850;2022-10-16T10:30:04;20.20;85.10
41437;DHT22;27178;49.460;10.850;2022-10-16T10:32:38;20.30;85.20
41437;DHT22;27178;49.460;10.850;2022-10-16T10:35:15;20.30;85.10
41437;DHT22;27178;49.460;10.850;2022-10-16T10:37:59;20.30;85.30
41437;DHT22;27178;49.460;10.850;2022-10-16T10:40:39;20.40;85.40
41437;DHT22;27178;49.460;10.850;2022-10-16T10:43:17;20.40;85.10
41437;DHT22;27178;49.460;10.850;2022-10-16T10:45:54;20.50;84.90
41437;DHT22;27178;49.460;10.850;2022-10-16T10:51:28;20.60;84.80
41437;DHT22;27178;49.460;10.850;2022-10-16T10:54:10;20.60;84.70
41437;DHT22;27178;49.460;10.850;2022-10-16T10:56:46;20.60;84.60
41437;DHT22;27178;49.460;10.850;2022-10-16T10:59:48;20.70;84.40
41437;DHT22;27178;49.460;10.850;2022-10-16T11:02:26;20.70;84.20
41437;DHT22;27178;49.460;10.850;2022-10-16T11:05:27;20.70;84.00
41437;DHT22;27178;49.460;10.850;2022-10-16T11:07:59;20.80;83.80
41437;DHT22;27178;49.460;10.850;2022-10-16T11:10:32;20.80;83.80
41437;DHT22;27178;49.460;10.850;2022-10-16T11:13:10;20.80;83.60
41437;DHT22;27178;49.460;10.850;2022-10-16T11:15:43;20.80;83.50
41437;DHT22;27178;49.460;10.850;2022-10-16T11:18:21;20.80;83.50
41437;DHT22;27178;49.460;10.850;2022-10-16T11:20:53;20.80;83.30
41437;DHT22;27178;49.460;10.850;2022-10-16T11:23:26;20.90;83.30
41437;DHT22;27178;49.460;10.850;2022-10-16T11:25:59;20.90;83.10
41437;DHT22;27178;49.460;10.850;2022-10-16T11:28:33;20.90;83.30
41437;DHT22;27178;49.460;10.850;2022-10-16T11:31:08;20.90;83.20
41437;DHT22;27178;49.460;10.850;2022-10-16T11:33:41;20.90;83.30
41437;DHT22;27178;49.460;10.850;2022-10-16T11:36:14;21.00;83.20
41437;DHT22;27178;49.460;10.850;2022-10-16T11:38:49;21.00;83.20
41437;DHT22;27178;49.460;10.850;2022-10-16T11:41:26;21.10;83.50
41437;DHT22;27178;49.460;10.850;2022-10-16T11:44:20;21.20;83.60
41437;DHT22;27178;49.460;10.850;2022-10-16T11:46:58;21.30;83.40
41437;DHT22;27178;49.460;10.850;2022-10-16T11:49:53;21.30;83.60
41437;DHT22;27178;49.460;10.850;2022-10-16T11:52:29;21.40;83.40
41437;DHT22;27178;49.460;10.850;2022-10-16T11:55:03;21.50;83.40
41437;DHT22;27178;49.460;10.850;2022-10-16T11:57:35;21.60;83.00
41437;DHT22;27178;49.460;10.850;2022-10-16T12:00:09;21.70;83.00
41437;DHT22;27178;49.460;10.850;2022-10-16T12:02:48;21.80;83.20
41437;DHT22;27178;49.460;10.850;2022-10-16T12:05:24;21.90;83.00
41437;DHT22;27178;49.460;10.850;2022-10-16T12:08:04;22.10;83.40
41437;DHT22;27178;49.460;10.850;2022-10-16T12:10:35;22.30;82.80
41437;DHT22;27178;49.460;10.850;2022-10-16T12:13:04;22.60;83.10
41437;DHT22;27178;49.460;10.850;2022-10-16T12:15:34;22.80;82.10
41437;DHT22;27178;49.460;10.850;2022-10-16T12:18:23;23.00;81.00
41437;DHT22;27178;49.460;10.850;2022-10-16T12:20:56;23.10;79.90
41437;DHT22;27178;49.460;10.850;2022-10-16T12:23:27;23.20;78.80
41437;DHT22;27178;49.460;10.850;2022-10-16T12:25:56;23.20;78.70
41437;DHT22;27178;49.460;10.850;2022-10-16T12:28:27;23.20;78.30
41437;DHT22;27178;49.460;10.850;2022-10-16T12:30:57;23.20;78.00
41437;DHT22;27178;49.460;10.850;2022-10-16T12:33:28;23.10;77.90
41437;DHT22;27178;49.460;10.850;2022-10-16T12:36:00;23.10;77.70
41437;DHT22;27178;49.460;10.850;2022-10-16T12:38:35;23.10;77.50
41437;DHT22;27178;49.460;10.850;2022-10-16T12:41:06;23.10;77.50
41437;DHT22;27178;49.460;10.850;2022-10-16T12:43:38;23.00;77.80
41437;DHT22;27178;49.460;10.850;2022-10-16T12:46:22;23.00;77.20
41437;DHT22;27178;49.460;10.850;2022-10-16T12:48:51;23.00;77.50
41437;DHT22;27178;49.460;10.850;2022-10-16T12:51:37;23.00;78.00
41437;DHT22;27178;49.460;10.850;2022-10-16T12:54:13;23.00;78.30
41437;DHT22;27178;49.460;10.850;2022-10-16T12:56:51;23.10;78.10
41437;DHT22;27178;49.460;10.850;2022-10-16T12:59:33;23.10;77.70
41437;DHT22;27178;49.460;10.850;2022-10-16T13:02:20;23.10;77.70
41437;DHT22;27178;49.460;10.850;2022-10-16T13:05:03;23.20;77.50
41437;DHT22;27178;49.460;10.850;2022-10-16T13:07:53;23.20;77.60
41437;DHT22;27178;49.460;10.850;2022-10-16T13:10:28;23.20;77.90
41437;DHT22;27178;49.460;10.850;2022-10-16T13:13:13;23.40;78.50
41437;DHT22;27178;49.460;10.850;2022-10-16T13:16:02;23.50;78.30
41437;DHT22;27178;49.460;10.850;2022-10-16T13:18:39;23.70;78.10
41437;DHT22;27178;49.460;10.850;2022-10-16T13:21:22;23.90;77.50
41437;DHT22;27178;49.460;10.850;2022-10-16T13:24:02;24.10;76.50
41437;DHT22;27178;49.460;10.850;2022-10-16T13:26:39;24.20;76.10
41437;DHT22;27178;49.460;10.850;2022-10-16T13:29:12;24.30;76.30
41437;DHT22;27178;49.460;10.850;2022-10-16T13:31:43;24.30;76.80
41437;DHT22;27178;49.460;10.850;2022-10-16T13:34:15;24.40;77.00
41437;DHT22;27178;49.460;10.850;2022-10-16T13:36:47;24.50;77.40
41437;DHT22;27178;49.460;10.850;2022-10-16T13:39:23;24.70;76.70
41437;DHT22;27178;49.460;10.850;2022-10-16T13:42:02;24.80;75.90
41437;DHT22;27178;49.460;10.850;2022-10-16T13:44:38;25.00;76.00
41437;DHT22;27178;49.460;10.850;2022-10-16T13:47:16;25.20;76.10
41437;DHT22;27178;49.460;10.850;2022-10-16T13:49:44;25.30;75.70
41437;DHT22;27178;49.460;10.850;2022-10-16T13:52:18;25.60;75.70
41437;DHT22;27178;49.460;10.850;2022-10-16T13:54:48;25.80;75.00
41437;DHT22;27178;49.460;10.850;2022-10-16T13:57:17;26.00;74.90
41437;DHT22;27178;49.460;10.850;2022-10-16T13:59:54;26.20;74.00
41437;DHT22;27178;49.460;10.850;2022-10-16T14:02:26;26.40;72.90
41437;DHT22;27178;49.460;10.850;2022-10-16T14:04:57;26.60;72.10
41437;DHT22;27178;49.460;10.850;2022-10-16T14:07:27;26.80;72.10
41437;DHT22;27178;49.460;10.850;2022-10-16T14:10:00;27.00;71.60
41437;DHT22;27178;49.460;10.850;2022-10-16T14:12:29;27.20;71.10
41437;DHT22;27178;49.460;10.850;2022-10-16T14:14:59;27.40;71.30
41437;DHT22;27178;49.460;10.850;2022-10-16T14:17:30;27.60;70.70
41437;DHT22;27178;49.460;10.850;2022-10-16T14:20:00;27.80;70.20
41437;DHT22;27178;49.460;10.850;2022-10-16T14:22:34;27.90;69.60
41437;DHT22;27178;49.460;10.850;2022-10-16T14:25:23;28.00;68.90
41437;DHT22;27178;49.460;10.850;2022-10-16T14:28:14;28.10;66.90
41437;DHT22;27178;49.460;10.850;2022-10-16T14:30:50;28.20;66.00
41437;DHT22;27178;49.460;10.850;2022-10-16T14:33:22;28.10;65.80
41437;DHT22;27178;49.460;10.850;2022-10-16T14:36:03;28.00;65.50
41437;DHT22;27178;49.460;10.850;2022-10-16T14:38:33;27.90;65.30
41437;DHT22;27178;49.460;10.850;2022-10-16T14:41:03;27.70;66.00
41437;DHT22;27178;49.460;10.850;2022-10-16T14:43:33;27.50;65.90
41437;DHT22;27178;49.460;10.850;2022-10-16T14:46:03;27.30;66.10
41437;DHT22;27178;49.460;10.850;2022-10-16T14:48:34;27.10;66.80
41437;DHT22;27178;49.460;10.850;2022-10-16T14:51:02;26.90;66.90
41437;DHT22;27178;49.460;10.850;2022-10-16T14:53:30;26.70;67.00
41437;DHT22;27178;49.460;10.850;2022-10-16T14:56:07;26.50;67.70
41437;DHT22;27178;49.460;10.850;2022-10-16T14:58:36;26.40;67.60
41437;DHT22;27178;49.460;10.850;2022-10-16T15:01:04;26.30;68.00
41437;DHT22;27178;49.460;10.850;2022-10-16T15:03:35;26.20;68.10
41437;DHT22;27178;49.460;10.850;2022-10-16T15:06:04;26.10;68.10
41437;DHT22;27178;49.460;10.850;2022-10-16T15:08:37;26.00;68.10
41437;DHT22;27178;49.460;10.850;2022-10-16T15:11:10;25.80;68.20
41437;DHT22;27178;49.460;10.850;2022-10-16T15:13:40;25.70;68.30
41437;DHT22;27178;49.460;10.850;2022-10-16T15:16:10;25.50;68.50
41437;DHT22;27178;49.460;10.850;2022-10-16T15:18:39;25.40;69.00
41437;DHT22;27178;49.460;10.850;2022-10-16T15:21:08;25.30;69.60
41437;DHT22;27178;49.460;10.850;2022-10-16T15:23:36;25.10;69.40
41437;DHT22;27178;49.460;10.850;2022-10-16T15:26:07;25.00;69.60
41437;DHT22;27178;49.460;10.850;2022-10-16T15:28:35;24.90;69.80
41437;DHT22;27178;49.460;10.850;2022-10-16T15:31:04;24.80;70.20
41437;DHT22;27178;49.460;10.850;2022-10-16T15:33:33;24.60;70.50
41437;DHT22;27178;49.460;10.850;2022-10-16T15:36:06;24.60;71.10
41437;DHT22;27178;49.460;10.850;2022-10-16T15:38:35;24.50;70.80
41437;DHT22;27178;49.460;10.850;2022-10-16T15:41:04;24.40;70.80
41437;DHT22;27178;49.460;10.850;2022-10-16T15:43:33;24.30;70.90
41437;DHT22;27178;49.460;10.850;2022-10-16T15:46:03;24.30;71.10
41437;DHT22;27178;49.460;10.850;2022-10-16T15:48:33;24.20;71.10
41437;DHT22;27178;49.460;10.850;2022-10-16T15:51:05;24.10;71.50